Terminal Aerodrome Forecast
Issued by NWS

Home | Current Version | Previous Version | Text Only | Print | Product List | Glossary On
Versions: 1 2 3 4 5 6 7 8 9 10 11 12 13 14
000
FTUS43 KABR 240520
TAFPIR
TAF
KPIR 240520Z 2406/2506 07008KT P6SM FEW250
     FM241800 10013KT P6SM FEW250
     FM250200 10009KT P6SM FEW250=

USA.gov is the U.S. government's official web portal to all federal, state and local government web resources and services.